Nicholasville, Kentucky
Current Conditions -  °F | °C
As of 4:20 AM on Thursday 18 Dec 2014 (Local Time) from KLEX Reporting Station
Overcast Overcast  
Wind Chill: 21°   Ceiling: 1400
Heat Index: 28°   Visibility: 10mi
Dew Point: 22°   Wind: 7mph
Humidity: 78%   Direction: 30°NNE
Pressure: 30.26"   Gusts: NA
Location:  37.89°N, 84.57°W
Report Text: KLEX 180920Z 03006KT 10SM OVC014 M02/M06 A3026 RMK AO2 T10221056
Loading
Personal Weather Stations






























Interactive Weather Map New forecast layout! Learn more

10-Day Weather Forecast

Advertisements
Track Severe Weather on mobile